createdAt,value
2023-10-27T00:01:42.151Z,98.06
2023-10-27T00:04:10.144Z,97.73
2023-10-27T00:06:37.824Z,97.26
2023-10-27T00:09:05.858Z,97.64
2023-10-27T00:11:33.477Z,98.11
2023-10-27T00:14:00.977Z,97.01
2023-10-27T00:16:28.501Z,97.90
2023-10-27T00:18:57.396Z,97.51
2023-10-27T00:21:25.062Z,97.04
2023-10-27T00:23:52.604Z,97.95
2023-10-27T00:26:20.111Z,98.02
2023-10-27T00:28:48.975Z,97.51
2023-10-27T00:31:16.530Z,98.07
2023-10-27T00:33:44.080Z,97.85
2023-10-27T00:36:12.942Z,97.56
2023-10-27T00:38:40.424Z,97.90
2023-10-27T00:41:07.956Z,97.90
2023-10-27T00:43:35.482Z,98.21
2023-10-27T00:46:03.021Z,98.01
2023-10-27T00:48:30.904Z,97.17
2023-10-27T00:50:58.828Z,97.90
2023-10-27T00:53:28.559Z,97.68
2023-10-27T00:55:56.735Z,98.51
2023-10-27T00:58:24.979Z,97.51
2023-10-27T01:00:57.023Z,98.54
2023-10-27T01:03:24.931Z,98.59
2023-10-27T01:05:52.445Z,98.71
2023-10-27T01:08:19.981Z,98.06
2023-10-27T01:10:49.008Z,97.91
2023-10-27T01:13:16.560Z,98.73
2023-10-27T01:15:44.085Z,98.83
2023-10-27T01:18:11.569Z,98.59
2023-10-27T01:20:39.209Z,98.40
2023-10-27T01:23:08.232Z,98.36
2023-10-27T01:25:35.851Z,98.07
2023-10-27T01:28:03.681Z,98.42
2023-10-27T01:30:31.529Z,97.90
2023-10-27T01:32:59.107Z,98.07
2023-10-27T01:35:26.673Z,98.26
2023-10-27T01:37:54.150Z,97.86
2023-10-27T01:40:23.042Z,98.73
2023-10-27T01:42:50.918Z,98.09
2023-10-27T01:45:18.496Z,98.82
2023-10-27T01:47:46.103Z,98.96
2023-10-27T01:50:13.619Z,98.12
2023-10-27T01:52:42.118Z,98.68
2023-10-27T01:55:10.369Z,97.82
2023-10-27T01:57:39.232Z,98.60
2023-10-27T02:00:08.866Z,98.75
2023-10-27T02:02:36.465Z,97.97
2023-10-27T02:05:04.556Z,98.58
2023-10-27T02:07:32.342Z,97.61
2023-10-27T02:10:00.952Z,98.12
2023-10-27T02:12:29.066Z,98.60
2023-10-27T02:14:57.977Z,99.27
2023-10-27T02:17:26.037Z,99.19
2023-10-27T02:19:55.534Z,98.63
2023-10-27T02:22:23.166Z,99.16
2023-10-27T02:24:50.721Z,98.41
2023-10-27T02:27:18.434Z,98.37
2023-10-27T02:29:46.204Z,98.38
2023-10-27T02:32:15.281Z,98.42
2023-10-27T02:34:42.931Z,98.59
2023-10-27T02:37:10.648Z,98.45
2023-10-27T02:39:38.606Z,98.53
2023-10-27T02:42:06.381Z,98.01
2023-10-27T02:44:34.112Z,98.57
2023-10-27T02:47:01.916Z,99.00
2023-10-27T02:49:31.194Z,98.27
2023-10-27T02:51:58.981Z,98.43
2023-10-27T02:54:26.873Z,98.56
2023-10-27T02:56:54.575Z,98.05
2023-10-27T02:59:22.299Z,98.09
2023-10-27T03:01:50.736Z,98.37
2023-10-27T03:04:20.319Z,97.80
2023-10-27T03:06:49.443Z,98.07
2023-10-27T03:09:17.068Z,98.13
2023-10-27T03:11:44.753Z,98.33
2023-10-27T03:14:12.989Z,98.20
2023-10-27T03:16:41.030Z,97.41
2023-10-27T03:19:08.858Z,98.41
2023-10-27T03:21:37.028Z,97.80
2023-10-27T03:24:07.663Z,97.54
2023-10-27T03:26:36.361Z,97.55
2023-10-27T03:29:05.273Z,97.49
2023-10-27T03:31:33.099Z,97.38
2023-10-27T03:34:01.458Z,98.03
2023-10-27T03:36:29.391Z,97.98
2023-10-27T03:38:56.984Z,98.14
2023-10-27T03:41:25.889Z,97.13
2023-10-27T03:43:54.112Z,97.99
2023-10-27T03:46:21.624Z,98.16
2023-10-27T03:48:49.354Z,97.70
2023-10-27T03:51:17.438Z,97.58
2023-10-27T03:53:45.027Z,98.07
2023-10-27T03:56:12.545Z,97.99
2023-10-27T04:01:14.660Z,97.59
2023-10-27T04:03:42.254Z,97.38
2023-10-27T04:06:09.785Z,98.21
2023-10-27T04:08:37.294Z,98.58
2023-10-27T04:11:05.282Z,98.15
2023-10-27T04:13:32.892Z,98.64
2023-10-27T04:16:01.809Z,98.00
2023-10-27T04:18:30.008Z,97.80
2023-10-27T04:20:57.581Z,98.11
2023-10-27T04:23:25.118Z,98.15
2023-10-27T04:25:53.462Z,97.73
2023-10-27T04:28:23.560Z,97.91
2023-10-27T04:30:51.389Z,97.53
2023-10-27T04:33:21.104Z,98.34
2023-10-27T04:35:51.053Z,97.68
2023-10-27T04:38:19.361Z,97.75
2023-10-27T04:40:46.855Z,98.38
2023-10-27T04:43:14.451Z,97.32
2023-10-27T04:45:41.995Z,98.41
2023-10-27T04:48:09.543Z,98.23
2023-10-27T04:50:38.444Z,97.56
2023-10-27T04:53:05.990Z,97.05
2023-10-27T04:55:33.582Z,97.13
2023-10-27T04:58:01.261Z,98.27
2023-10-27T05:00:28.838Z,98.04
2023-10-27T05:02:56.830Z,97.54
2023-10-27T05:05:24.494Z,97.06
2023-10-27T05:07:53.404Z,97.23
2023-10-27T05:10:20.999Z,97.56
2023-10-27T05:12:49.779Z,97.68
2023-10-27T05:15:17.329Z,96.94
2023-10-27T05:17:44.853Z,97.21
2023-10-27T05:20:13.512Z,97.83
2023-10-27T05:22:41.083Z,97.28
2023-10-27T05:25:10.715Z,97.37
2023-10-27T05:27:38.555Z,96.91
2023-10-27T05:30:07.717Z,97.29
2023-10-27T05:32:35.275Z,97.91
2023-10-27T05:35:02.872Z,97.13
2023-10-27T05:37:30.544Z,97.53
2023-10-27T05:39:58.084Z,98.13
2023-10-27T05:42:26.975Z,97.92
2023-10-27T05:44:54.477Z,96.82
2023-10-27T05:47:22.006Z,97.02
2023-10-27T05:49:51.614Z,97.62
2023-10-27T05:52:19.404Z,97.60
2023-10-27T05:54:49.067Z,97.59
2023-10-27T05:57:16.913Z,96.73
2023-10-27T05:59:45.965Z,97.51
2023-10-27T06:02:16.093Z,96.02
2023-10-27T06:04:44.184Z,96.20
2023-10-27T06:07:16.508Z,95.56
2023-10-27T06:09:44.828Z,95.85
2023-10-27T06:12:12.818Z,95.58
2023-10-27T06:14:45.323Z,96.05
2023-10-27T06:17:15.478Z,96.12
2023-10-27T06:19:43.531Z,95.48
2023-10-27T06:22:11.714Z,95.46
2023-10-27T06:24:39.415Z,95.58
2023-10-27T06:27:07.125Z,96.29
2023-10-27T06:29:35.277Z,96.11
2023-10-27T06:32:04.537Z,95.74
2023-10-27T06:34:33.824Z,95.67
2023-10-27T06:37:02.341Z,95.12
2023-10-27T06:39:30.063Z,95.16
2023-10-27T06:41:57.969Z,94.93
2023-10-27T06:44:25.696Z,94.66
2023-10-27T06:46:54.638Z,94.44
2023-10-27T06:49:22.395Z,94.92
2023-10-27T06:51:51.600Z,95.06
2023-10-27T06:54:19.400Z,94.50
2023-10-27T06:56:47.069Z,94.86
2023-10-27T06:59:14.666Z,95.15
2023-10-27T07:01:43.453Z,95.56
2023-10-27T07:04:12.166Z,95.80
2023-10-27T07:06:39.706Z,95.00
2023-10-27T07:09:08.606Z,94.42
2023-10-27T07:11:36.109Z,94.21
2023-10-27T07:14:04.653Z,95.23
2023-10-27T07:16:32.220Z,95.12
2023-10-27T07:18:59.870Z,95.52
2023-10-27T07:21:27.479Z,95.48
2023-10-27T07:23:55.021Z,94.14
2023-10-27T07:26:23.884Z,94.94
2023-10-27T07:28:51.432Z,95.64
2023-10-27T07:31:18.999Z,95.65
2023-10-27T07:33:46.556Z,94.37
2023-10-27T07:36:14.385Z,94.60
2023-10-27T07:38:41.991Z,94.76
2023-10-27T07:41:09.775Z,94.62
2023-10-27T07:43:38.836Z,95.23
2023-10-27T07:46:06.455Z,95.41
2023-10-27T07:48:34.499Z,95.66
2023-10-27T07:51:02.420Z,94.77
2023-10-27T07:53:30.011Z,94.82
2023-10-27T07:55:58.412Z,95.46
2023-10-27T07:58:27.569Z,95.49
2023-10-27T08:00:56.748Z,95.70
2023-10-27T08:03:25.596Z,95.89
2023-10-27T08:05:53.460Z,95.58
2023-10-27T08:08:21.757Z,95.38
2023-10-27T08:10:50.311Z,95.96
2023-10-27T08:13:18.728Z,96.22
2023-10-27T08:15:46.386Z,96.13
2023-10-27T08:18:15.381Z,95.84
2023-10-27T08:20:42.957Z,96.44
2023-10-27T08:23:11.081Z,96.66
2023-10-27T08:25:38.940Z,96.39
2023-10-27T08:28:07.566Z,96.34
2023-10-27T08:30:35.262Z,95.87
2023-10-27T08:33:02.940Z,96.02
2023-10-27T08:35:32.759Z,95.55
2023-10-27T08:38:00.376Z,95.48
2023-10-27T08:40:28.533Z,94.93
2023-10-27T08:42:58.236Z,94.39
2023-10-27T08:45:26.614Z,94.75
2023-10-27T08:47:55.392Z,94.74
2023-10-27T08:50:23.550Z,95.08
2023-10-27T08:52:52.850Z,94.99
2023-10-27T08:55:21.296Z,94.31
2023-10-27T08:57:48.948Z,93.72
2023-10-27T09:00:17.352Z,93.16
2023-10-27T09:02:44.928Z,93.24
2023-10-27T09:05:13.190Z,93.11
2023-10-27T09:07:41.143Z,93.11
2023-10-27T09:10:11.861Z,92.09
2023-10-27T09:12:40.444Z,92.10
2023-10-27T09:15:09.358Z,91.80
2023-10-27T09:17:53.735Z,91.92
2023-10-27T09:20:22.580Z,92.12
2023-10-27T09:23:00.479Z,92.61
2023-10-27T09:25:33.812Z,92.68
2023-10-27T09:28:03.032Z,93.83
2023-10-27T09:30:32.020Z,93.82
2023-10-27T09:33:13.339Z,93.93
2023-10-27T09:35:41.267Z,93.71
2023-10-27T09:38:09.705Z,94.03
2023-10-27T09:40:39.810Z,94.13
2023-10-27T09:43:09.906Z,94.24
2023-10-27T09:45:38.882Z,93.86
2023-10-27T09:48:08.946Z,93.42
2023-10-27T09:50:36.782Z,93.11
2023-10-27T09:53:04.896Z,92.69
2023-10-27T09:55:33.253Z,92.37
2023-10-27T09:58:02.538Z,91.75
2023-10-27T10:00:33.139Z,90.43
2023-10-27T10:03:02.848Z,91.50
2023-10-27T10:05:30.625Z,90.84
2023-10-27T10:08:01.346Z,91.41
2023-10-27T10:10:31.386Z,90.69
2023-10-27T10:13:03.846Z,90.34
2023-10-27T10:15:32.539Z,89.57
2023-10-27T10:18:00.434Z,89.40
2023-10-27T10:21:00.388Z,88.60
2023-10-27T10:24:01.283Z,89.09
2023-10-27T10:27:02.336Z,86.54
2023-10-27T10:29:36.073Z,87.07
2023-10-27T10:32:36.850Z,87.68
2023-10-27T10:35:22.195Z,87.04
2023-10-27T10:37:52.606Z,85.97
2023-10-27T10:40:23.840Z,86.66
2023-10-27T10:43:24.640Z,85.38
2023-10-27T10:45:55.843Z,85.46
2023-10-27T10:48:26.052Z,85.84
2023-10-27T10:50:54.867Z,87.30
2023-10-27T10:53:23.892Z,86.51
2023-10-27T10:55:52.017Z,85.09
2023-10-27T10:58:23.630Z,84.38
2023-10-27T11:00:51.926Z,86.13
2023-10-27T11:03:23.362Z,83.65
2023-10-27T11:05:52.754Z,85.72
2023-10-27T11:08:25.780Z,85.33
2023-10-27T11:11:04.176Z,84.50
2023-10-27T11:13:34.241Z,83.30
2023-10-27T11:16:02.468Z,82.95
2023-10-27T11:18:32.591Z,83.28
2023-10-27T11:21:00.280Z,84.59
2023-10-27T11:23:29.832Z,84.75
2023-10-27T11:26:05.033Z,83.15
2023-10-27T11:28:37.831Z,85.02
2023-10-27T11:31:09.059Z,84.86
2023-10-27T11:33:59.672Z,84.93
2023-10-27T11:36:28.106Z,86.71
2023-10-27T11:38:56.119Z,86.34
2023-10-27T11:41:24.291Z,86.59
2023-10-27T11:43:51.819Z,86.30
2023-10-27T11:46:20.734Z,86.66
2023-10-27T11:48:49.315Z,86.08
2023-10-27T11:51:18.260Z,85.42
2023-10-27T11:53:46.753Z,86.12
2023-10-27T11:56:14.635Z,85.45
2023-10-27T11:58:42.177Z,84.41
2023-10-27T12:01:09.946Z,84.50
2023-10-27T12:03:37.967Z,85.25
2023-10-27T12:06:05.759Z,84.70
2023-10-27T12:08:34.710Z,85.51
2023-10-27T12:11:02.318Z,85.68
2023-10-27T12:13:29.937Z,85.12
2023-10-27T12:15:57.623Z,87.28
2023-10-27T12:18:25.278Z,84.75
2023-10-27T12:20:52.832Z,84.46
2023-10-27T12:23:20.427Z,84.95
2023-10-27T12:25:49.907Z,85.38
2023-10-27T12:28:17.498Z,83.56
2023-10-27T12:30:45.805Z,84.22
2023-10-27T12:33:13.436Z,84.31
2023-10-27T12:35:41.040Z,83.67
2023-10-27T12:38:08.886Z,84.16
2023-10-27T12:40:37.210Z,84.33
2023-10-27T12:43:06.456Z,84.67
2023-10-27T12:45:33.988Z,85.27
2023-10-27T12:48:03.108Z,83.19
2023-10-27T12:50:32.097Z,84.89
2023-10-27T12:52:59.690Z,84.38
2023-10-27T12:55:28.247Z,84.94
2023-10-27T12:57:58.765Z,85.83
2023-10-27T13:00:30.958Z,85.53
2023-10-27T13:02:59.793Z,86.47
2023-10-27T13:05:27.479Z,84.89
2023-10-27T13:07:55.682Z,86.23
2023-10-27T13:10:24.279Z,86.43
2023-10-27T13:12:53.263Z,85.33
2023-10-27T13:15:20.841Z,85.04
2023-10-27T13:17:50.051Z,84.95
2023-10-27T13:20:18.661Z,84.46
2023-10-27T13:22:46.794Z,84.54
2023-10-27T13:25:15.236Z,84.55
2023-10-27T13:27:45.649Z,85.67
2023-10-27T13:30:15.006Z,85.44
2023-10-27T13:32:43.949Z,85.17
2023-10-27T13:35:12.911Z,85.54
2023-10-27T13:37:40.459Z,84.72
2023-10-27T13:40:09.368Z,85.22
2023-10-27T13:42:37.415Z,85.41
2023-10-27T13:45:05.562Z,85.37
2023-10-27T13:47:33.994Z,84.98
2023-10-27T13:50:01.716Z,85.92
2023-10-27T13:52:30.594Z,85.80
2023-10-27T13:54:59.486Z,86.60
2023-10-27T13:57:27.686Z,87.53
2023-10-27T13:59:55.212Z,86.67
2023-10-27T14:02:22.713Z,86.63
2023-10-27T14:04:50.521Z,85.47
2023-10-27T14:07:18.332Z,87.09
2023-10-27T14:09:47.735Z,86.15
2023-10-27T14:12:15.958Z,86.49
2023-10-27T14:14:43.451Z,86.04
2023-10-27T14:17:10.977Z,86.58
2023-10-27T14:19:39.842Z,87.74
2023-10-27T14:22:07.387Z,89.04
2023-10-27T14:24:35.123Z,89.14
2023-10-27T14:27:06.544Z,89.50
2023-10-27T14:29:34.180Z,90.33
2023-10-27T14:32:01.741Z,89.02
2023-10-27T14:34:29.486Z,88.07
2023-10-27T14:36:57.279Z,87.27
2023-10-27T14:39:24.862Z,86.21
2023-10-27T14:41:52.375Z,86.12
2023-10-27T14:44:21.346Z,84.70
2023-10-27T14:46:48.843Z,85.27
2023-10-27T14:49:18.194Z,86.09
2023-10-27T14:51:45.746Z,85.62
2023-10-27T14:54:13.313Z,86.84
2023-10-27T14:56:40.832Z,87.95
2023-10-27T14:59:08.310Z,87.69
2023-10-27T15:01:37.126Z,88.18
2023-10-27T15:04:05.020Z,87.46
2023-10-27T15:06:32.888Z,87.69
2023-10-27T15:09:00.365Z,87.71
2023-10-27T15:11:28.092Z,87.36
2023-10-27T15:13:55.667Z,87.96
2023-10-27T15:16:23.250Z,88.58
2023-10-27T15:18:52.154Z,88.18
2023-10-27T15:21:19.770Z,87.54
2023-10-27T15:23:48.923Z,86.28
2023-10-27T15:26:16.977Z,86.72
2023-10-27T15:28:48.078Z,86.89
2023-10-27T15:31:16.149Z,87.69
2023-10-27T15:33:43.942Z,88.16
2023-10-27T15:36:49.099Z,88.41
2023-10-27T15:39:01.979Z,87.96
2023-10-27T15:41:30.850Z,88.35
2023-10-27T15:44:00.574Z,88.42
2023-10-27T15:46:30.996Z,89.27
2023-10-27T15:48:58.490Z,88.90
2023-10-27T15:51:27.661Z,87.92
2023-10-27T15:53:57.408Z,87.72
2023-10-27T15:56:27.638Z,88.59
2023-10-27T15:58:55.913Z,89.01
2023-10-27T16:01:23.987Z,89.49
2023-10-27T16:03:52.001Z,89.53
2023-10-27T16:06:20.268Z,89.74
2023-10-27T16:08:49.121Z,89.68
2023-10-27T16:11:16.886Z,89.46
2023-10-27T16:13:44.625Z,89.59
2023-10-27T16:16:12.373Z,90.30
2023-10-27T16:18:40.108Z,89.86
2023-10-27T16:21:07.844Z,90.11
2023-10-27T16:23:35.403Z,90.40
2023-10-27T16:26:08.270Z,91.32
2023-10-27T16:28:36.288Z,91.70
2023-10-27T16:31:04.090Z,91.87
2023-10-27T16:33:32.256Z,91.41
2023-10-27T16:36:02.285Z,92.04
2023-10-27T16:38:29.929Z,91.95
2023-10-27T16:40:58.155Z,92.14
2023-10-27T16:43:27.013Z,91.68
2023-10-27T16:45:54.540Z,92.71
2023-10-27T16:48:22.023Z,91.70
2023-10-27T16:50:51.177Z,92.76
2023-10-27T16:53:37.376Z,92.67
2023-10-27T16:56:05.687Z,92.96
2023-10-27T16:58:34.742Z,92.88
2023-10-27T17:01:03.705Z,91.81
2023-10-27T17:03:32.907Z,92.70
2023-10-27T17:06:00.472Z,92.52
2023-10-27T17:08:28.696Z,92.60
2023-10-27T17:10:56.882Z,92.63
2023-10-27T17:13:26.773Z,92.65
2023-10-27T17:16:05.310Z,92.80
2023-10-27T17:18:34.333Z,93.51
2023-10-27T17:21:10.873Z,92.78
2023-10-27T17:23:38.406Z,93.49
2023-10-27T17:26:08.403Z,93.29
2023-10-27T17:28:36.290Z,92.72
2023-10-27T17:31:05.944Z,91.91
2023-10-27T17:33:33.626Z,93.11
2023-10-27T17:36:07.022Z,93.36
2023-10-27T17:38:34.896Z,92.70
2023-10-27T17:41:04.660Z,93.23
2023-10-27T17:43:32.497Z,93.53
2023-10-27T17:46:00.369Z,93.44
2023-10-27T17:48:29.699Z,93.84
2023-10-27T17:51:00.796Z,93.04
2023-10-27T17:53:29.064Z,93.31
2023-10-27T17:55:56.925Z,92.86
2023-10-27T17:58:26.460Z,93.11
2023-10-27T18:01:03.804Z,93.73
2023-10-27T18:03:33.123Z,93.96
2023-10-27T18:06:01.995Z,93.82
2023-10-27T18:08:30.024Z,93.99
2023-10-27T18:10:58.302Z,94.15
2023-10-27T18:13:26.539Z,93.73
2023-10-27T18:15:54.855Z,94.79
2023-10-27T18:18:23.746Z,94.96
2023-10-27T18:20:53.544Z,94.43
2023-10-27T18:23:24.393Z,94.17
2023-10-27T18:25:52.279Z,94.22
2023-10-27T18:28:22.707Z,94.78
2023-10-27T18:30:50.554Z,94.89
2023-10-27T18:33:18.547Z,95.12
2023-10-27T18:35:46.422Z,94.46
2023-10-27T18:38:16.493Z,94.26
2023-10-27T18:40:45.103Z,93.45
2023-10-27T18:43:15.937Z,94.32
2023-10-27T18:45:43.818Z,94.03
2023-10-27T18:48:15.186Z,93.83
2023-10-27T18:50:43.012Z,94.53
2023-10-27T18:53:13.446Z,94.36
2023-10-27T18:55:43.277Z,94.83
2023-10-27T18:58:11.010Z,94.47
2023-10-27T19:00:42.342Z,95.06
2023-10-27T19:03:10.349Z,95.14
2023-10-27T19:05:39.335Z,95.30
2023-10-27T19:08:08.447Z,95.08
2023-10-27T19:10:38.784Z,95.13
2023-10-27T19:13:08.840Z,95.78
2023-10-27T19:15:36.686Z,95.35
2023-10-27T19:18:06.548Z,94.95
2023-10-27T19:20:34.475Z,95.77
2023-10-27T19:23:02.199Z,94.76
2023-10-27T19:25:31.877Z,95.18
2023-10-27T19:27:59.573Z,95.12
2023-10-27T19:30:28.632Z,95.11
2023-10-27T19:32:56.809Z,95.39
2023-10-27T19:35:24.486Z,96.04
2023-10-27T19:37:52.468Z,95.90
2023-10-27T19:40:20.208Z,95.77
2023-10-27T19:42:47.928Z,96.59
2023-10-27T19:45:17.960Z,95.89
2023-10-27T19:47:47.382Z,95.96
2023-10-27T19:50:15.292Z,95.94
2023-10-27T19:52:43.331Z,95.61
2023-10-27T19:55:16.096Z,96.06
2023-10-27T19:57:43.916Z,96.03
2023-10-27T20:00:13.825Z,95.87
2023-10-27T20:02:41.621Z,94.77
2023-10-27T20:05:13.504Z,95.66
2023-10-27T20:07:41.458Z,95.44
2023-10-27T20:10:10.220Z,95.14
2023-10-27T20:12:37.903Z,94.53
2023-10-27T20:15:10.059Z,94.82
2023-10-27T20:17:40.284Z,95.47
2023-10-27T20:20:14.353Z,96.27
2023-10-27T20:22:42.726Z,95.38
2023-10-27T20:25:12.306Z,94.95
2023-10-27T20:27:40.458Z,94.89
2023-10-27T20:30:09.589Z,95.30
2023-10-27T20:32:37.176Z,95.10
2023-10-27T20:35:05.810Z,94.72
2023-10-27T20:37:34.855Z,95.36
2023-10-27T20:40:02.403Z,95.37
2023-10-27T20:42:30.012Z,95.45
2023-10-27T20:44:57.755Z,95.25
2023-10-27T20:47:25.596Z,95.05
2023-10-27T20:49:53.252Z,95.91
2023-10-27T20:52:21.045Z,96.00
2023-10-27T20:54:49.915Z,95.02
2023-10-27T20:57:20.287Z,95.70
2023-10-27T20:59:47.778Z,94.83
2023-10-27T21:02:15.324Z,95.56
2023-10-27T21:04:42.874Z,95.80
2023-10-27T21:07:10.421Z,95.37
2023-10-27T21:09:37.927Z,95.60
2023-10-27T21:12:07.318Z,95.57
2023-10-27T21:14:34.839Z,95.75
2023-10-27T21:17:02.639Z,95.62
2023-10-27T21:19:30.172Z,96.03
2023-10-27T21:21:57.699Z,95.61
2023-10-27T21:24:25.189Z,95.29
2023-10-27T21:26:52.855Z,95.29
2023-10-27T21:29:21.703Z,95.72
2023-10-27T21:31:51.564Z,96.52
2023-10-27T21:34:19.466Z,96.05
2023-10-27T21:36:47.071Z,95.96
2023-10-27T21:39:15.674Z,96.52
2023-10-27T21:41:43.187Z,96.19
2023-10-27T21:44:10.724Z,96.58
2023-10-27T21:46:39.582Z,96.99
2023-10-27T21:49:07.266Z,96.71
2023-10-27T21:51:35.907Z,96.90
2023-10-27T21:54:03.406Z,96.33
2023-10-27T21:56:30.856Z,96.58
2023-10-27T21:58:58.450Z,97.49
2023-10-27T22:01:25.965Z,97.17
2023-10-27T22:03:59.360Z,96.97
2023-10-27T22:06:30.512Z,96.57
2023-10-27T22:08:58.088Z,95.49
2023-10-27T22:11:25.568Z,94.79
2023-10-27T22:13:53.068Z,95.40
2023-10-27T22:16:20.575Z,95.61
2023-10-27T22:18:48.653Z,94.69
2023-10-27T22:21:17.618Z,94.97
2023-10-27T22:23:46.076Z,93.55
2023-10-27T22:26:13.586Z,94.03
2023-10-27T22:28:41.134Z,94.38
2023-10-27T22:31:09.003Z,93.61
2023-10-27T22:33:36.929Z,94.54
2023-10-27T22:36:04.781Z,93.48
2023-10-27T22:38:33.614Z,93.80
2023-10-27T22:41:07.160Z,93.76
2023-10-27T22:43:34.687Z,94.26
2023-10-27T22:46:02.720Z,94.41
2023-10-27T22:48:30.185Z,94.24
2023-10-27T22:50:57.810Z,93.80
2023-10-27T22:53:25.320Z,94.57
2023-10-27T22:55:54.318Z,93.94
2023-10-27T22:58:21.851Z,94.63
2023-10-27T23:00:49.412Z,94.71
2023-10-27T23:03:19.295Z,95.16
2023-10-27T23:05:47.614Z,94.81
2023-10-27T23:08:15.135Z,94.76
2023-10-27T23:10:42.645Z,95.72
2023-10-27T23:13:11.565Z,94.71
2023-10-27T23:15:39.096Z,95.99
2023-10-27T23:18:07.983Z,95.42
2023-10-27T23:20:37.980Z,96.26
2023-10-27T23:23:06.463Z,95.45
2023-10-27T23:25:34.442Z,95.83
2023-10-27T23:28:02.057Z,96.24
2023-10-27T23:30:31.556Z,96.43
2023-10-27T23:32:59.101Z,96.55
2023-10-27T23:35:28.713Z,95.51
2023-10-27T23:37:56.325Z,96.16
2023-10-27T23:40:23.805Z,97.09
2023-10-27T23:42:51.302Z,96.88
2023-10-27T23:45:18.916Z,96.97
2023-10-27T23:47:48.073Z,95.94
2023-10-27T23:50:15.831Z,97.23
2023-10-27T23:52:43.703Z,96.79
2023-10-27T23:55:11.815Z,96.44
2023-10-27T23:57:39.289Z,96.96
